MAPLE11 YWLM-YWLM

Flight info

Callsign MAPLE11
Flight time 0h 15m
Altitude 10000
Route YWLM YWLM
Aircraft F35/L-V/N

Departure

Time 2026-04-17 11:19
Airport Newcastle Airport (YWLM)

Arrival

Time 2026-04-17 11:34
Airport Newcastle Airport (YWLM)
Time Latitude Longitude Altitude Speed Heading
2026-04-17 11:07 -32.79074 151.83776 31 ft 0 kts 236°
2026-04-17 11:12 -32.79082 151.83776 10 ft 6 kts 175°
2026-04-17 11:12 -32.79160 151.83747 31 ft 19 kts 220°
2026-04-17 11:13 -32.79300 151.83600 31 ft 28 kts 221°
2026-04-17 11:13 -32.79413 151.83529 28 ft 12 kts 148°
2026-04-17 11:13 -32.79511 151.83658 27 ft 38 kts 131°
2026-04-17 11:13 -32.79787 151.84035 32 ft 74 kts 130°
2026-04-17 11:14 -32.80042 151.84393 30 ft 47 kts 130°
2026-04-17 11:14 -32.80249 151.84687 29 ft 44 kts 130°
2026-04-17 11:14 -32.80401 151.84822 31 ft 11 kts 210°
2026-04-17 11:14 -32.80404 151.84820 31 ft 0 kts 210°
2026-04-17 11:16 -32.80413 151.84814 31 ft 8 kts 210°
2026-04-17 11:16 -32.80461 151.84763 31 ft 9 kts 222°
2026-04-17 11:16 -32.80479 151.84721 31 ft 2 kts 309°
2026-04-17 11:16 -32.80477 151.84718 31 ft 0 kts 308°
2026-04-17 11:18 -32.80160 151.84277 29 ft 183 kts 310°
2026-04-17 11:18 -32.78959 151.82623 426 ft 342 kts 309°
2026-04-17 11:19 -32.77357 151.80448 1178 ft 402 kts 308°
2026-04-17 11:19 -32.75967 151.78598 5427 ft 108 kts 306°
2026-04-17 11:19 -32.74576 151.77209 8232 ft 365 kts 316°
2026-04-17 11:19 -32.72411 151.74698 8722 ft 505 kts 310°
2026-04-17 11:20 -32.69960 151.71128 9310 ft 592 kts 304°
2026-04-17 11:20 -32.67249 151.67432 9985 ft 601 kts 322°
2026-04-17 11:20 -32.63379 151.65409 9235 ft 621 kts 347°
2026-04-17 11:20 -32.59051 151.65499 7427 ft 624 kts 13°
2026-04-17 11:21 -32.55218 151.67654 8115 ft 603 kts 27°
2026-04-17 11:21 -32.51559 151.70053 9472 ft 597 kts 27°
2026-04-17 11:21 -32.47783 151.72536 10761 ft 652 kts 27°
2026-04-17 11:21 -32.44119 151.75474 10931 ft 637 kts 35°
2026-04-17 11:22 -32.40636 151.78824 8879 ft 646 kts 48°
2026-04-17 11:22 -32.38251 151.83333 7932 ft 653 kts 72°
2026-04-17 11:22 -32.37163 151.88479 8465 ft 647 kts 78°
2026-04-17 11:22 -32.36413 151.93744 8067 ft 652 kts 83°
2026-04-17 11:23 -32.36598 151.99064 6779 ft 657 kts 121°
2026-04-17 11:23 -32.39186 152.03522 6483 ft 615 kts 128°
2026-04-17 11:23 -32.41608 152.07566 6536 ft 598 kts 127°
2026-04-17 11:23 -32.43953 152.11604 6765 ft 595 kts 126°
2026-04-17 11:24 -32.46178 152.15642 6920 ft 593 kts 124°
2026-04-17 11:24 -32.48350 152.19812 7076 ft 593 kts 122°
2026-04-17 11:24 -32.50523 152.23971 7221 ft 585 kts 135°
2026-04-17 11:24 -32.53888 152.26616 5545 ft 591 kts 161°
2026-04-17 11:25 -32.57579 152.26544 5406 ft 467 kts 242°
2026-04-17 11:25 -32.58689 152.26944 7387 ft 293 kts 75°
2026-04-17 11:25 -32.57034 152.28515 6523 ft 379 kts
2026-04-17 11:25 -32.53821 152.28837 5938 ft 540 kts
2026-04-17 11:26 -32.49678 152.29002 5367 ft 634 kts
2026-04-17 11:26 -32.46725 152.30806 6480 ft 449 kts 143°
2026-04-17 11:26 -32.49186 152.30548 7144 ft 418 kts 197°
2026-04-17 11:26 -32.52422 152.29781 8624 ft 527 kts 191°
2026-04-17 11:27 -32.56326 152.29056 6683 ft 604 kts 190°
2026-04-17 11:27 -32.60516 152.28293 2126 ft 607 kts 193°
2026-04-17 11:27 -32.63977 152.26572 4858 ft 502 kts 207°
2026-04-17 11:27 -32.66720 152.23834 8075 ft 548 kts 244°
2026-04-17 11:28 -32.67890 152.19408 10185 ft 576 kts 259°
2026-04-17 11:28 -32.68724 152.14530 11004 ft 609 kts 259°
2026-04-17 11:28 -32.69252 152.09363 12241 ft 662 kts 272°
2026-04-17 11:28 -32.68775 152.04192 13476 ft 550 kts 279°
2026-04-17 11:29 -32.68046 152.00220 14348 ft 445 kts 284°
2026-04-17 11:29 -32.67363 151.96969 13412 ft 386 kts 277°
2026-04-17 11:29 -32.67790 151.93436 9581 ft 546 kts 258°
2026-04-17 11:29 -32.68544 151.88400 4340 ft 677 kts 261°
2026-04-17 11:30 -32.69141 151.83275 2720 ft 609 kts 254°
2026-04-17 11:30 -32.70954 151.78784 3078 ft 613 kts 222°
2026-04-17 11:30 -32.74607 151.77410 3276 ft 476 kts 139°
2026-04-17 11:30 -32.77027 151.80623 903 ft 602 kts 134°
2026-04-17 11:31 -32.79987 151.84467 164 ft 642 kts 133°
2026-04-17 11:31 -32.82947 151.84111 2941 ft 414 kts 192°
2026-04-17 11:31 -32.85630 151.83806 2824 ft 346 kts 181°
2026-04-17 11:31 -32.87571 151.84615 3781 ft 273 kts 137°
2026-04-17 11:32 -32.88202 151.85977 4134 ft 249 kts 96°
2026-04-17 11:32 -32.87607 151.87875 3536 ft 227 kts 44°
2026-04-17 11:32 -32.86360 151.88597 2827 ft 181 kts
2026-04-17 11:32 -32.85146 151.88625 2219 ft 217 kts 360°
2026-04-17 11:33 -32.83715 151.88504 1621 ft 190 kts 336°
2026-04-17 11:33 -32.82683 151.87771 1122 ft 158 kts 311°
2026-04-17 11:33 -32.81996 151.86884 558 ft 154 kts 305°
2026-04-17 11:33 -32.81192 151.85739 362 ft 211 kts 305°
2026-04-17 11:34 -32.80192 151.84308 27 ft 192 kts 310°
2026-04-17 11:34 -32.79681 151.83608 27 ft 69 kts 311°
2026-04-17 11:34 -32.79385 151.83198 29 ft 62 kts 310°
2026-04-17 11:34 -32.79183 151.83009 31 ft 0 kts 48°
2026-04-17 11:35 -32.79178 151.83017 31 ft 5 kts 48°
2026-04-17 11:35 -32.79161 151.83059 31 ft 4 kts 70°
2026-04-17 11:35 -32.79145 151.83089 31 ft 10 kts 56°
2026-04-17 11:35 -32.79170 151.83175 31 ft 15 kts 129°
2026-04-17 11:36 -32.79236 151.83272 32 ft 15 kts 129°
2026-04-17 11:36 -32.79238 151.83349 31 ft 9 kts 47°
2026-04-17 11:36 -32.79218 151.83352 31 ft 2 kts 257°
2026-04-17 11:36 -32.79264 151.83335 30 ft 8 kts 157°
2026-04-17 11:37 -32.79320 151.83395 28 ft 16 kts 133°
2026-04-17 11:37 -32.79326 151.83498 29 ft 11 kts 41°
2026-04-17 11:37 -32.79266 151.83559 31 ft 13 kts 38°
2026-04-17 11:37 -32.79179 151.83644 31 ft 15 kts 39°
2026-04-17 11:38 -32.79104 151.83719 32 ft 13 kts 46°
2026-04-17 11:38 -32.79062 151.83728 33 ft 10 kts 322°
2026-04-17 11:38 -32.79010 151.83758 33 ft 8 kts 123°
2026-04-17 11:38 -32.79047 151.83777 34 ft 4 kts 227°
2026-04-17 11:39 -32.79054 151.83764 34 ft 0 kts 244°